Time;durP1;ratioP1;P1;durP2;ratioP2;P2;SDS_P1;SDS_P2;PMS_P1;PMS_P2;Temp;Humidity;BMP_temperature;BMP_pressure;BME280_temperature;BME280_humidity;BME280_pressure;Samples;Min_cycle;Max_cycle;Signal;HPM_P1;HPM_P2
2022/07/16 00:01:28;;;;;;;13.45;6.28;;;15.50;99.90;;;;;;5014900;28;20088;-69
2022/07/16 00:03:59;;;;;;;14.43;6.28;;;15.70;99.90;;;;;;5025429;28;20057;-70
2022/07/16 00:06:27;;;;;;;13.13;6.15;;;15.80;99.90;;;;;;5034996;28;20049;-71
2022/07/16 00:08:53;;;;;;;10.32;5.47;;;15.80;99.90;;;;;;5038915;28;20053;-70
2022/07/16 00:11:19;;;;;;;8.82;4.60;;;15.70;99.90;;;;;;5038938;28;20069;-68
2022/07/16 00:13:45;;;;;;;7.25;3.72;;;15.90;99.90;;;;;;5038796;28;20061;-68
2022/07/16 00:16:11;;;;;;;7.40;2.88;;;15.90;99.90;;;;;;5038439;28;20352;-71
2022/07/16 00:21:22;;;;;;;6.53;3.15;;;15.80;99.90;;;;;;5038692;28;20046;-67
2022/07/16 00:23:47;;;;;;;11.00;3.10;;;15.70;99.90;;;;;;5038605;28;20444;-67
2022/07/16 00:26:13;;;;;;;7.82;3.13;;;15.50;99.90;;;;;;5038413;28;20049;-68
2022/07/16 00:28:39;;;;;;;11.88;3.53;;;15.50;99.90;;;;;;5038401;28;20050;-69
2022/07/16 00:31:04;;;;;;;13.23;3.83;;;15.50;99.90;;;;;;5037790;28;20045;-68
2022/07/16 00:33:31;;;;;;;15.05;3.97;;;15.40;99.90;;;;;;5038646;28;20052;-69
2022/07/16 00:35:56;;;;;;;9.88;4.10;;;15.40;99.90;;;;;;5038577;28;20084;-71
2022/07/16 00:38:22;;;;;;;14.77;5.10;;;15.50;99.90;;;;;;5038361;28;20053;-68
2022/07/16 00:40:48;;;;;;;15.50;4.65;;;15.40;99.90;;;;;;5038133;28;20128;-68
2022/07/16 00:43:14;;;;;;;11.15;4.50;;;15.30;99.90;;;;;;5038071;28;20048;-68
2022/07/16 00:45:40;;;;;;;10.63;4.07;;;15.30;99.90;;;;;;5036741;28;20410;-69
2022/07/16 00:48:07;;;;;;;10.45;3.55;;;15.40;99.90;;;;;;5021035;28;20050;-70
2022/07/16 00:50:35;;;;;;;8.85;3.30;;;15.30;99.90;;;;;;5038045;28;20049;-68
2022/07/16 00:53:02;;;;;;;8.40;3.40;;;15.40;99.90;;;;;;5038235;28;20075;-67
2022/07/16 00:55:27;;;;;;;8.23;3.10;;;15.50;99.90;;;;;;5038009;28;20116;-68
2022/07/16 00:57:55;;;;;;;7.53;2.80;;;15.50;99.90;;;;;;5037897;28;20483;-70
2022/07/16 01:00:20;;;;;;;9.07;2.50;;;15.60;99.90;;;;;;5036284;28;20046;-68
2022/07/16 01:02:46;;;;;;;6.70;2.80;;;15.60;99.90;;;;;;5036963;28;20053;-71
2022/07/16 01:05:12;;;;;;;7.00;2.40;;;15.40;99.90;;;;;;5038012;28;20056;-69
2022/07/16 01:07:38;;;;;;;4.97;2.30;;;15.40;99.90;;;;;;5038055;28;20051;-71
2022/07/16 01:10:05;;;;;;;4.82;2.05;;;15.40;99.90;;;;;;5037683;28;20099;-69
2022/07/16 01:12:31;;;;;;;4.45;2.30;;;15.50;99.90;;;;;;5037599;28;20132;-69
2022/07/16 01:14:57;;;;;;;6.07;2.83;;;15.40;99.90;;;;;;5036918;28;20046;-70
2022/07/16 01:17:23;;;;;;;6.55;2.50;;;15.40;99.90;;;;;;5037441;28;20103;-69
2022/07/16 01:19:49;;;;;;;5.80;2.88;;;15.40;99.90;;;;;;5037209;28;20045;-69
2022/07/16 01:22:23;;;;;;;4.15;2.35;;;15.30;99.90;;;;;;5037520;28;20114;-69
2022/07/16 01:24:49;;;;;;;8.30;3.03;;;15.30;99.90;;;;;;5037121;28;20060;-70
2022/07/16 01:27:16;;;;;;;7.80;2.80;;;15.30;99.90;;;;;;5036821;28;20054;-67
2022/07/16 01:29:41;;;;;;;8.75;3.55;;;15.40;99.90;;;;;;5020446;28;20045;-68
2022/07/16 01:32:07;;;;;;;10.32;3.00;;;15.40;99.90;;;;;;5037376;28;20475;-68
2022/07/16 01:34:33;;;;;;;8.50;2.90;;;15.30;99.90;;;;;;5037374;28;20056;-69
2022/07/16 01:37:05;;;;;;;3.95;2.40;;;15.20;99.90;;;;;;5037232;28;20048;-68
2022/07/16 01:39:33;;;;;;;8.65;3.25;;;15.20;99.90;;;;;;5037100;28;20045;-68
2022/07/16 01:42:01;;;;;;;5.50;2.80;;;15.10;99.90;;;;;;5036116;28;20046;-69
2022/07/16 01:44:28;;;;;;;8.85;2.90;;;15.30;99.90;;;;;;5037238;28;20060;-69
2022/07/16 01:46:55;;;;;;;5.60;2.78;;;15.10;99.90;;;;;;5037143;28;20041;-68
2022/07/16 01:49:22;;;;;;;7.63;3.25;;;15.10;99.90;;;;;;5037160;28;20072;-69
2022/07/16 01:51:48;;;;;;;6.95;3.03;;;15.20;99.90;;;;;;5037013;28;20143;-69
2022/07/16 01:54:13;;;;;;;9.93;3.08;;;15.00;99.90;;;;;;5036929;28;20502;-70
2022/07/16 01:56:39;;;;;;;6.90;2.70;;;15.10;99.90;;;;;;4999412;28;20049;-69
2022/07/16 01:59:05;;;;;;;5.93;3.13;;;15.10;99.90;;;;;;5017358;28;20367;-69
2022/07/16 02:01:31;;;;;;;4.30;2.75;;;15.10;99.90;;;;;;4999600;28;20053;-69
2022/07/16 02:03:57;;;;;;;6.70;2.90;;;15.00;99.90;;;;;;5017009;28;20044;-70
2022/07/16 02:06:23;;;;;;;5.13;2.90;;;15.00;99.90;;;;;;5016936;28;20123;-67
2022/07/16 02:08:48;;;;;;;10.75;3.08;;;15.00;99.90;;;;;;5019464;28;20048;-67
2022/07/16 02:11:14;;;;;;;7.28;3.47;;;15.00;99.90;;;;;;5036623;28;20451;-68
2022/07/16 02:13:40;;;;;;;11.40;4.28;;;14.90;99.90;;;;;;5019284;28;20115;-67
2022/07/16 02:16:05;;;;;;;9.50;3.47;;;14.90;99.90;;;;;;5036499;28;20041;-70
2022/07/16 02:18:31;;;;;;;8.27;3.65;;;14.80;99.90;;;;;;5035867;28;20041;-67
2022/07/16 02:20:57;;;;;;;5.80;3.05;;;14.80;99.90;;;;;;5036355;28;20120;-69
2022/07/16 02:23:23;;;;;;;10.70;3.90;;;14.90;99.90;;;;;;5036566;28;20451;-69
2022/07/16 02:25:48;;;;;;;8.23;3.60;;;14.70;99.90;;;;;;5036309;28;20115;-69
2022/07/16 02:28:14;;;;;;;11.38;3.42;;;14.70;99.90;;;;;;5036211;28;20054;-67
2022/07/16 02:30:43;;;;;;;10.52;3.30;;;14.70;99.90;;;;;;5035666;28;20046;-69
2022/07/16 02:33:11;;;;;;;6.97;3.17;;;14.80;99.90;;;;;;5035654;28;20053;-69
2022/07/16 02:35:37;;;;;;;8.25;3.50;;;14.80;99.90;;;;;;5035914;28;20075;-70
2022/07/16 02:38:04;;;;;;;11.20;3.83;;;14.70;99.90;;;;;;5036054;28;20050;-68
2022/07/16 02:40:32;;;;;;;5.47;3.42;;;14.80;99.90;;;;;;5018894;28;20058;-69
2022/07/16 02:42:59;;;;;;;11.88;3.22;;;14.60;99.90;;;;;;5034858;28;20092;-68
2022/07/16 02:45:24;;;;;;;8.88;3.38;;;14.60;99.90;;;;;;5036249;28;20056;-69
2022/07/16 02:47:50;;;;;;;7.70;3.42;;;14.60;99.90;;;;;;5036040;28;20049;-70
2022/07/16 02:50:15;;;;;;;11.45;4.13;;;14.60;99.90;;;;;;5035893;28;20067;-68
2022/07/16 02:52:41;;;;;;;12.48;3.92;;;14.50;99.90;;;;;;5018640;28;20053;-68
2022/07/16 02:55:07;;;;;;;11.68;3.60;;;14.50;99.90;;;;;;5035674;28;20044;-69
2022/07/16 02:57:33;;;;;;;15.73;4.65;;;14.50;99.90;;;;;;5033690;28;20053;-69
2022/07/16 02:59:58;;;;;;;7.32;4.10;;;14.60;99.90;;;;;;5035674;28;20041;-67
2022/07/16 03:02:24;;;;;;;7.13;3.35;;;14.60;99.90;;;;;;5017788;28;20069;-71
2022/07/16 03:04:50;;;;;;;6.75;3.28;;;14.50;99.90;;;;;;5035566;28;20371;-68
2022/07/16 03:07:15;;;;;;;7.80;3.53;;;14.50;99.90;;;;;;5035401;28;20048;-68
2022/07/16 03:09:41;;;;;;;9.95;3.60;;;14.50;99.90;;;;;;5035051;28;20068;-68
2022/07/16 03:12:06;;;;;;;11.88;4.35;;;14.40;99.90;;;;;;5035262;28;20103;-68
2022/07/16 03:14:32;;;;;;;12.30;4.93;;;14.40;99.90;;;;;;5035567;28;20049;-70
2022/07/16 03:16:58;;;;;;;7.20;2.58;;;14.30;99.90;;;;;;5035455;28;20120;-70
2022/07/16 03:19:23;;;;;;;17.60;3.10;;;14.30;99.90;;;;;;5035306;28;20498;-70
2022/07/16 03:21:49;;;;;;;9.80;3.03;;;14.20;99.90;;;;;;5035188;28;20045;-72
2022/07/16 03:24:14;;;;;;;10.20;2.63;;;14.30;99.90;;;;;;5017926;28;20049;-67
2022/07/16 03:26:40;;;;;;;8.63;2.47;;;14.30;99.90;;;;;;5034484;28;20050;-68
2022/07/16 03:29:05;;;;;;;7.43;2.50;;;14.20;99.90;;;;;;5035171;28;20053;-69
2022/07/16 03:31:31;;;;;;;10.68;2.40;;;14.10;99.90;;;;;;5035493;28;20053;-69
2022/07/16 03:33:56;;;;;;;8.18;2.30;;;14.10;99.90;;;;;;5035043;28;20053;-71
2022/07/16 03:36:22;;;;;;;10.68;2.50;;;14.10;99.90;;;;;;5018011;28;20049;-67
2022/07/16 03:41:27;;;;;;;10.65;3.28;;;14.10;99.90;;;;;;5034785;28;20084;-68
2022/07/16 03:43:52;;;;;;;7.35;2.83;;;14.00;99.90;;;;;;5017534;28;20049;-69
2022/07/16 03:46:19;;;;;;;12.18;2.67;;;14.00;99.90;;;;;;5034381;28;20124;-68
2022/07/16 03:48:44;;;;;;;7.47;2.40;;;14.00;99.90;;;;;;5014269;28;20042;-67
2022/07/16 03:51:11;;;;;;;12.90;3.50;;;14.00;99.90;;;;;;5015180;28;20093;-70
2022/07/16 03:53:37;;;;;;;9.88;3.05;;;13.90;99.90;;;;;;5015479;28;20050;-67
2022/07/16 03:56:04;;;;;;;8.75;2.83;;;13.90;99.90;;;;;;5016860;28;20136;-68
2022/07/16 03:58:29;;;;;;;10.38;2.97;;;14.00;99.90;;;;;;5021110;28;20041;-67
2022/07/16 04:00:55;;;;;;;10.23;2.65;;;13.90;99.90;;;;;;5020871;28;20038;-66
2022/07/16 04:03:22;;;;;;;5.32;2.80;;;13.90;99.90;;;;;;5038723;28;20052;-67
2022/07/16 04:05:48;;;;;;;7.10;2.35;;;13.90;99.90;;;;;;5040689;28;20073;-67
2022/07/16 04:08:13;;;;;;;12.10;3.00;;;14.00;99.90;;;;;;5040823;28;20048;-66
2022/07/16 04:10:39;;;;;;;11.57;2.63;;;13.90;99.90;;;;;;5040114;28;20054;-68
2022/07/16 04:13:05;;;;;;;10.10;3.22;;;13.90;99.90;;;;;;5040069;28;20329;-67
2022/07/16 04:15:30;;;;;;;6.47;2.40;;;13.90;99.90;;;;;;5035604;28;20042;-69
2022/07/16 04:17:56;;;;;;;9.35;3.00;;;13.90;99.90;;;;;;5033921;28;20443;-72
2022/07/16 04:20:22;;;;;;;6.90;2.67;;;13.90;99.90;;;;;;5034713;28;20371;-69
2022/07/16 04:22:48;;;;;;;8.90;2.88;;;13.90;99.90;;;;;;5034572;28;20094;-69
2022/07/16 04:25:14;;;;;;;11.57;2.67;;;13.80;99.90;;;;;;5034302;28;20049;-68
2022/07/16 04:27:43;;;;;;;9.25;2.70;;;13.90;99.90;;;;;;5017374;28;20523;-66
2022/07/16 04:30:10;;;;;;;8.88;2.78;;;13.90;99.90;;;;;;5033822;28;20044;-69
2022/07/16 04:32:40;;;;;;;11.32;2.60;;;13.90;99.90;;;;;;5033153;28;20084;-69
2022/07/16 04:35:07;;;;;;;9.13;2.20;;;13.90;99.90;;;;;;5034704;28;20074;-70
2022/07/16 04:37:33;;;;;;;7.28;2.10;;;14.00;99.90;;;;;;5034576;28;20053;-68
2022/07/16 04:39:59;;;;;;;10.80;2.50;;;13.90;99.90;;;;;;5034472;28;20073;-67
2022/07/16 04:42:25;;;;;;;6.13;2.50;;;13.90;99.90;;;;;;5017026;28;20099;-69
2022/07/16 04:44:50;;;;;;;6.95;2.22;;;13.90;99.90;;;;;;5033602;28;20052;-66
2022/07/16 04:47:16;;;;;;;9.60;2.92;;;13.90;99.90;;;;;;5034389;28;20042;-69
2022/07/16 04:49:42;;;;;;;10.00;2.30;;;13.90;99.90;;;;;;5034588;28;20245;-69
2022/07/16 04:52:07;;;;;;;7.05;2.03;;;13.90;99.90;;;;;;5034332;28;20477;-67
2022/07/16 04:54:33;;;;;;;5.45;1.98;;;13.90;99.90;;;;;;5038263;28;20052;-69
2022/07/16 04:56:59;;;;;;;8.30;2.22;;;13.90;99.90;;;;;;5038236;28;20083;-67
2022/07/16 04:59:25;;;;;;;10.00;2.38;;;13.90;99.90;;;;;;5037268;28;20041;-69
2022/07/16 05:01:51;;;;;;;10.20;2.65;;;14.00;99.90;;;;;;5037089;28;20051;-67
2022/07/16 05:04:16;;;;;;;7.32;1.60;;;14.00;99.90;;;;;;5037512;28;20041;-67
2022/07/16 05:06:42;;;;;;;8.15;2.08;;;14.10;99.90;;;;;;5038095;28;20049;-70
2022/07/16 05:09:08;;;;;;;9.27;2.25;;;14.00;99.90;;;;;;5037902;28;20045;-67
2022/07/16 05:11:33;;;;;;;6.20;2.22;;;14.20;99.90;;;;;;5038001;28;20041;-68
2022/07/16 05:13:59;;;;;;;6.30;1.90;;;14.30;99.90;;;;;;5003342;28;20060;-68
2022/07/16 05:16:25;;;;;;;5.43;2.15;;;14.30;99.90;;;;;;5037425;28;20108;-69
2022/07/16 05:18:51;;;;;;;7.05;1.88;;;14.40;99.90;;;;;;5037652;28;20501;-69
2022/07/16 05:21:17;;;;;;;5.95;2.42;;;14.60;99.90;;;;;;5037553;28;20321;-70
2022/07/16 05:23:42;;;;;;;9.85;2.00;;;14.60;99.90;;;;;;5037781;28;20052;-67
2022/07/16 05:26:08;;;;;;;10.45;2.08;;;14.60;99.90;;;;;;5037442;28;20124;-71
2022/07/16 05:28:34;;;;;;;8.57;2.20;;;14.60;99.90;;;;;;5036541;28;20073;-71
2022/07/16 05:31:00;;;;;;;8.65;1.67;;;14.60;99.90;;;;;;5037559;28;20443;-68
2022/07/16 05:33:25;;;;;;;9.23;2.05;;;14.70;99.90;;;;;;5037316;28;20328;-69
2022/07/16 05:35:51;;;;;;;3.33;1.35;;;14.60;99.90;;;;;;5020234;28;20053;-67
2022/07/16 05:38:17;;;;;;;8.80;2.17;;;14.60;99.90;;;;;;5037382;28;20379;-67
2022/07/16 05:40:43;;;;;;;6.82;1.67;;;14.70;99.90;;;;;;5036676;28;20064;-67
2022/07/16 05:43:09;;;;;;;7.30;1.98;;;14.70;99.90;;;;;;5037327;28;20049;-70
2022/07/16 05:45:34;;;;;;;10.80;1.95;;;14.80;99.90;;;;;;5037179;28;20045;-68
2022/07/16 05:48:00;;;;;;;5.88;2.15;;;14.80;99.90;;;;;;5036930;28;20348;-69
2022/07/16 05:50:26;;;;;;;8.90;1.92;;;14.90;99.90;;;;;;5021431;28;20064;-69
2022/07/16 05:52:52;;;;;;;8.80;2.90;;;15.00;99.90;;;;;;5002626;28;20049;-69
2022/07/16 05:55:17;;;;;;;6.60;2.13;;;15.00;99.90;;;;;;5036380;28;20049;-70
2022/07/16 05:57:43;;;;;;;6.35;1.60;;;15.00;99.90;;;;;;5036880;28;20048;-68
2022/07/16 06:00:11;;;;;;;9.95;1.73;;;15.00;99.90;;;;;;5003405;28;20103;-68
2022/07/16 06:02:40;;;;;;;4.70;2.03;;;15.00;99.90;;;;;;5018323;28;20037;-69
2022/07/16 06:05:07;;;;;;;9.75;2.45;;;15.10;99.90;;;;;;5035702;28;20056;-69
2022/07/16 06:07:33;;;;;;;7.60;1.90;;;15.10;99.90;;;;;;5036703;28;20088;-70
2022/07/16 06:09:59;;;;;;;6.60;2.70;;;15.10;99.90;;;;;;5036649;28;20049;-67
2022/07/16 06:12:24;;;;;;;11.00;2.83;;;15.10;99.90;;;;;;5036044;28;20054;-69
2022/07/16 06:14:50;;;;;;;8.95;1.90;;;15.10;99.90;;;;;;5036557;28;20150;-70
2022/07/16 06:17:15;;;;;;;8.75;1.90;;;15.10;99.90;;;;;;5035849;28;20049;-68
2022/07/16 06:19:43;;;;;;;8.48;1.80;;;15.20;99.90;;;;;;5036271;28;20337;-71
2022/07/16 06:22:09;;;;;;;5.72;1.75;;;15.20;99.90;;;;;;5036282;28;20452;-70
2022/07/16 06:24:35;;;;;;;7.72;2.72;;;15.20;99.90;;;;;;5036508;28;20049;-68
2022/07/16 06:27:01;;;;;;;6.50;1.70;;;15.20;99.90;;;;;;5036183;28;20052;-69
2022/07/16 06:29:27;;;;;;;7.75;2.20;;;15.30;99.90;;;;;;4985326;28;20049;-68
2022/07/16 06:31:52;;;;;;;9.68;1.90;;;15.30;99.90;;;;;;5033782;28;20045;-69
2022/07/16 06:34:18;;;;;;;6.88;1.42;;;15.20;99.90;;;;;;5036142;28;20444;-68
2022/07/16 06:36:44;;;;;;;4.40;1.67;;;15.20;99.90;;;;;;5019208;28;20071;-69
2022/07/16 06:39:09;;;;;;;5.80;1.50;;;15.30;99.90;;;;;;5032387;28;20037;-70
2022/07/16 06:41:39;;;;;;;5.55;1.60;;;15.30;99.90;;;;;;5035191;28;20049;-70
2022/07/16 06:44:09;;;;;;;6.65;1.42;;;15.40;99.90;;;;;;5026961;28;20048;-70
2022/07/16 06:46:35;;;;;;;5.28;1.40;;;15.40;99.90;;;;;;5016053;28;20046;-68
2022/07/16 06:49:01;;;;;;;7.70;1.40;;;15.50;99.90;;;;;;4998798;28;20049;-69
2022/07/16 06:51:27;;;;;;;5.30;1.67;;;15.50;99.90;;;;;;5016000;28;20056;-68
2022/07/16 06:53:53;;;;;;;7.13;1.50;;;15.50;99.90;;;;;;4998718;28;20050;-71
2022/07/16 06:56:18;;;;;;;8.48;1.80;;;15.50;99.90;;;;;;5028082;28;20041;-70
2022/07/16 06:58:44;;;;;;;5.30;2.15;;;15.60;99.90;;;;;;5035653;28;20041;-69
2022/07/16 07:01:10;;;;;;;4.50;1.60;;;15.60;99.90;;;;;;5034779;28;20047;-69
2022/07/16 07:03:39;;;;;;;6.70;1.50;;;15.80;99.90;;;;;;5015997;28;20050;-71
2022/07/16 07:06:05;;;;;;;4.15;1.40;;;15.80;99.90;;;;;;5016035;28;20061;-68
2022/07/16 07:08:31;;;;;;;4.25;1.63;;;15.90;99.90;;;;;;5016021;28;20077;-69
2022/07/16 07:10:56;;;;;;;5.15;1.67;;;15.90;99.90;;;;;;5024381;28;20080;-72
2022/07/16 07:13:22;;;;;;;5.10;1.75;;;16.00;99.90;;;;;;5035210;28;20528;-71
2022/07/16 07:15:47;;;;;;;7.88;1.60;;;16.10;99.90;;;;;;5035237;28;20045;-71
2022/07/16 07:18:13;;;;;;;5.18;1.38;;;16.30;99.90;;;;;;5035450;28;20414;-70
2022/07/16 07:20:39;;;;;;;5.78;1.45;;;16.50;99.90;;;;;;5035507;28;20072;-69
2022/07/16 07:23:04;;;;;;;8.05;2.13;;;16.70;99.90;;;;;;5034622;28;20038;-70
2022/07/16 07:25:30;;;;;;;6.22;1.45;;;16.80;99.90;;;;;;5018363;28;20050;-67
2022/07/16 07:27:56;;;;;;;6.32;1.75;;;16.90;99.90;;;;;;5018223;28;20037;-69
2022/07/16 07:30:21;;;;;;;4.50;1.85;;;17.00;99.90;;;;;;5041110;28;20049;-66
2022/07/16 07:32:47;;;;;;;4.85;2.03;;;16.90;99.90;;;;;;5040882;28;20041;-66
2022/07/16 07:35:12;;;;;;;5.38;2.00;;;16.80;99.90;;;;;;5041305;28;20049;-66
2022/07/16 07:37:39;;;;;;;9.95;1.75;;;16.70;99.90;;;;;;5040230;28;20049;-67
2022/07/16 07:40:05;;;;;;;8.23;1.58;;;16.70;99.90;;;;;;5023054;28;20049;-68
2022/07/16 07:42:31;;;;;;;8.15;1.65;;;16.70;99.90;;;;;;5038777;28;20041;-69
2022/07/16 07:44:57;;;;;;;6.80;1.80;;;16.70;99.90;;;;;;5035286;28;20068;-67
2022/07/16 07:47:23;;;;;;;6.47;1.58;;;16.70;99.90;;;;;;5001496;28;20439;-68
2022/07/16 07:49:48;;;;;;;4.70;1.75;;;16.60;99.90;;;;;;5035260;28;20040;-70
2022/07/16 07:52:14;;;;;;;6.05;1.73;;;16.70;99.90;;;;;;5034015;28;20072;-67
2022/07/16 07:54:40;;;;;;;4.22;1.63;;;16.70;99.90;;;;;;5034487;28;20136;-70
2022/07/16 07:57:05;;;;;;;3.60;1.50;;;16.70;99.90;;;;;;5034753;28;20033;-69
2022/07/16 07:59:31;;;;;;;5.85;1.50;;;16.70;99.90;;;;;;5017706;28;20049;-70
2022/07/16 08:01:57;;;;;;;5.65;1.98;;;16.80;99.90;;;;;;5017390;28;20045;-68
2022/07/16 08:04:22;;;;;;;6.88;2.83;;;16.80;99.90;;;;;;5034934;28;20092;-66
2022/07/16 08:06:48;;;;;;;9.07;1.92;;;16.90;99.90;;;;;;5034359;28;20061;-69
2022/07/16 08:09:13;;;;;;;6.93;1.77;;;16.90;99.90;;;;;;5034749;28;20049;-68
2022/07/16 08:11:39;;;;;;;4.32;1.48;;;16.90;99.90;;;;;;5033930;28;20053;-66
2022/07/16 08:14:04;;;;;;;4.47;1.55;;;16.90;99.90;;;;;;5034920;28;20464;-66
2022/07/16 08:16:30;;;;;;;5.88;1.30;;;16.90;99.90;;;;;;5016961;28;20056;-67
2022/07/16 08:18:55;;;;;;;7.95;1.92;;;17.10;99.90;;;;;;5034349;28;20107;-69
2022/07/16 08:21:21;;;;;;;7.45;1.67;;;17.10;99.90;;;;;;5034476;28;20124;-68
2022/07/16 08:26:31;;;;;;;6.32;2.58;;;17.20;99.90;;;;;;5034681;28;20064;-68
2022/07/16 08:28:56;;;;;;;6.43;1.95;;;17.10;99.90;;;;;;5037154;28;20124;-70
2022/07/16 08:31:22;;;;;;;6.38;2.00;;;17.20;99.90;;;;;;5038683;28;20045;-68
2022/07/16 08:33:48;;;;;;;6.97;1.80;;;17.10;99.90;;;;;;5036939;28;20053;-69
2022/07/16 08:36:13;;;;;;;11.57;2.17;;;17.00;99.90;;;;;;5038409;28;20057;-70
2022/07/16 08:38:39;;;;;;;5.90;1.85;;;17.00;99.90;;;;;;5038347;28;20053;-69
2022/07/16 08:41:05;;;;;;;6.20;2.33;;;16.80;99.90;;;;;;5038211;28;20053;-70
2022/07/16 08:43:32;;;;;;;5.50;1.77;;;16.90;99.90;;;;;;5038380;28;20046;-71
2022/07/16 08:45:58;;;;;;;7.32;1.83;;;17.00;99.90;;;;;;5038330;28;20046;-70
2022/07/16 08:48:24;;;;;;;8.32;2.22;;;17.20;99.90;;;;;;5036674;28;20356;-69
2022/07/16 08:50:55;;;;;;;7.32;1.92;;;17.30;99.90;;;;;;5036453;28;20088;-68
2022/07/16 08:53:24;;;;;;;10.48;2.00;;;17.50;99.90;;;;;;5027415;28;20046;-68
2022/07/16 08:55:54;;;;;;;11.27;3.05;;;17.50;99.90;;;;;;5015977;28;20444;-71
2022/07/16 08:58:20;;;;;;;4.20;1.55;;;17.50;99.90;;;;;;5032374;28;20056;-69
2022/07/16 09:00:46;;;;;;;10.00;3.00;;;17.80;99.90;;;;;;5037744;28;20046;-71
2022/07/16 09:03:15;;;;;;;6.18;1.80;;;18.00;99.90;;;;;;5037971;28;20042;-68
2022/07/16 09:05:41;;;;;;;6.53;1.83;;;18.10;99.90;;;;;;5037405;28;20045;-68
2022/07/16 09:08:07;;;;;;;11.20;2.20;;;18.00;99.90;;;;;;5037157;28;20123;-69
2022/07/16 09:10:39;;;;;;;7.18;2.38;;;18.10;99.90;;;;;;5020536;28;20095;-70
2022/07/16 09:13:05;;;;;;;6.60;2.15;;;18.30;99.90;;;;;;5037690;28;20451;-70
2022/07/16 09:15:36;;;;;;;9.18;2.10;;;18.20;99.90;;;;;;5037827;28;20072;-69
2022/07/16 09:18:11;;;;;;;8.95;2.30;;;18.00;99.90;;;;;;5037632;28;20056;-70
2022/07/16 09:20:39;;;;;;;9.95;2.22;;;18.00;99.90;;;;;;5037499;28;20038;-70
2022/07/16 09:23:17;;;;;;;9.10;2.22;;;18.10;99.90;;;;;;5028424;28;20550;-69
2022/07/16 09:25:53;;;;;;;9.43;1.88;;;18.10;99.90;;;;;;5017825;28;20053;-70
2022/07/16 09:28:20;;;;;;;5.75;1.80;;;18.00;99.90;;;;;;5017231;28;20053;-70
2022/07/16 09:30:46;;;;;;;11.98;2.22;;;18.20;99.90;;;;;;5017620;28;20133;-70
2022/07/16 09:33:20;;;;;;;8.27;2.45;;;18.40;99.90;;;;;;5017666;28;20096;-70
2022/07/16 09:35:47;;;;;;;7.57;2.55;;;18.20;99.90;;;;;;5017498;28;20053;-69
2022/07/16 09:38:13;;;;;;;8.25;2.20;;;17.80;99.90;;;;;;5036250;28;20403;-70
2022/07/16 09:40:42;;;;;;;8.35;1.95;;;18.00;99.90;;;;;;5037261;28;20060;-71
2022/07/16 09:43:14;;;;;;;5.55;1.90;;;18.10;99.90;;;;;;5037029;28;20045;-69
2022/07/16 09:45:44;;;;;;;9.43;2.70;;;18.10;99.90;;;;;;5037019;28;20049;-69
2022/07/16 09:48:23;;;;;;;8.20;1.70;;;18.20;99.90;;;;;;5037348;28;20095;-69
2022/07/16 09:50:49;;;;;;;6.88;2.00;;;18.50;99.90;;;;;;5036272;28;20068;-68
2022/07/16 09:53:21;;;;;;;9.55;2.05;;;18.50;99.90;;;;;;5037048;28;20041;-71
2022/07/16 09:56:03;;;;;;;12.00;2.40;;;18.20;99.90;;;;;;5036482;28;20459;-69
2022/07/16 09:58:30;;;;;;;4.75;1.70;;;18.00;99.90;;;;;;5030578;28;20034;-68
2022/07/16 10:00:56;;;;;;;7.78;1.70;;;17.80;99.90;;;;;;5016929;28;20429;-70
2022/07/16 10:03:23;;;;;;;5.47;1.95;;;18.20;99.90;;;;;;5025963;28;20052;-68
2022/07/16 10:05:49;;;;;;;6.88;2.15;;;18.10;99.90;;;;;;5036771;28;20060;-72
2022/07/16 10:08:15;;;;;;;7.63;2.00;;;18.00;99.90;;;;;;5036648;28;20459;-70
2022/07/16 10:10:41;;;;;;;8.95;1.83;;;18.00;99.90;;;;;;5036274;28;20041;-70
2022/07/16 10:13:08;;;;;;;6.30;1.70;;;18.00;99.90;;;;;;5026986;28;20114;-69
2022/07/16 10:15:34;;;;;;;7.93;1.75;;;18.10;99.90;;;;;;5021741;28;20049;-70
2022/07/16 10:17:59;;;;;;;7.70;2.45;;;18.20;99.90;;;;;;5025475;28;20050;-70
2022/07/16 10:20:25;;;;;;;6.45;2.05;;;18.40;99.90;;;;;;5036652;28;20343;-67
2022/07/16 10:22:51;;;;;;;9.05;2.50;;;18.50;99.90;;;;;;5036383;28;20041;-72
2022/07/16 10:25:23;;;;;;;7.22;2.38;;;18.60;99.90;;;;;;5036116;28;20045;-70
2022/07/16 10:27:49;;;;;;;5.68;1.60;;;18.70;99.90;;;;;;5036336;28;20057;-70
2022/07/16 10:30:18;;;;;;;8.25;2.05;;;18.70;99.90;;;;;;5036288;28;20041;-70
2022/07/16 10:33:02;;;;;;;7.60;1.80;;;18.80;99.90;;;;;;5035761;28;20041;-71
2022/07/16 10:35:49;;;;;;;8.37;1.60;;;18.80;99.90;;;;;;5035494;28;20049;-70
2022/07/16 10:38:23;;;;;;;6.28;1.73;;;19.10;99.90;;;;;;5035244;28;20081;-70
2022/07/16 10:41:07;;;;;;;5.93;1.67;;;19.40;99.90;;;;;;5036108;28;20099;-72
2022/07/16 10:43:33;;;;;;;3.22;1.50;;;19.60;99.90;;;;;;5036041;28;20057;-70
2022/07/16 10:46:01;;;;;;;5.20;1.85;;;19.60;99.90;;;;;;5031577;28;20049;-68
2022/07/16 10:48:29;;;;;;;6.90;1.90;;;19.40;99.90;;;;;;5028085;28;20415;-70
2022/07/16 10:51:21;;;;;;;6.45;1.92;;;19.70;99.90;;;;;;5034493;28;20482;-70
2022/07/16 10:53:58;;;;;;;5.15;1.73;;;19.90;99.90;;;;;;5037511;28;20403;-68
2022/07/16 10:56:47;;;;;;;8.10;2.17;;;19.90;99.90;;;;;;5040619;28;20059;-67
2022/07/16 10:59:16;;;;;;;6.72;2.38;;;20.30;99.90;;;;;;5004617;28;20437;-67
2022/07/16 11:01:44;;;;;;;5.38;1.65;;;19.90;99.90;;;;;;5036697;28;20159;-67
2022/07/16 11:04:10;;;;;;;8.18;2.38;;;19.90;99.90;;;;;;5013466;28;20205;-68
2022/07/16 11:06:39;;;;;;;8.60;1.98;;;19.70;99.90;;;;;;5020422;28;20056;-68
2022/07/16 11:09:07;;;;;;;9.40;2.35;;;19.50;99.90;;;;;;5004228;28;20045;-68
2022/07/16 11:11:39;;;;;;;12.60;2.13;;;19.70;99.90;;;;;;5020948;28;20053;-68
2022/07/16 11:14:07;;;;;;;8.05;2.17;;;19.90;99.90;;;;;;5024823;28;20115;-69
2022/07/16 11:16:32;;;;;;;8.50;2.15;;;20.10;99.90;;;;;;5035436;28;20056;-70
2022/07/16 11:19:03;;;;;;;7.45;2.40;;;20.20;99.90;;;;;;5035389;28;20475;-65
2022/07/16 11:21:29;;;;;;;7.35;2.30;;;19.70;99.90;;;;;;5035234;28;20056;-67
2022/07/16 11:23:58;;;;;;;8.98;2.20;;;19.70;99.90;;;;;;5035225;28;20045;-70
2022/07/16 11:26:24;;;;;;;6.70;2.15;;;19.70;99.90;;;;;;5035425;28;20049;-66
2022/07/16 11:28:51;;;;;;;7.35;2.20;;;19.90;99.90;;;;;;5034470;28;20048;-69
2022/07/16 11:31:32;;;;;;;9.55;1.90;;;19.90;99.90;;;;;;5034748;28;20042;-69
2022/07/16 11:34:02;;;;;;;6.80;2.00;;;20.00;99.90;;;;;;5035126;28;20072;-67
2022/07/16 11:36:42;;;;;;;10.02;2.80;;;19.70;99.90;;;;;;5035064;28;20052;-67
2022/07/16 11:39:13;;;;;;;6.28;2.63;;;19.60;99.90;;;;;;5032117;28;20099;-68
2022/07/16 11:41:43;;;;;;;9.52;1.60;;;20.20;99.90;;;;;;5017778;28;20033;-66
2022/07/16 11:44:09;;;;;;;8.02;1.83;;;20.20;99.90;;;;;;5025485;28;20060;-66
2022/07/16 11:46:46;;;;;;;6.78;2.60;;;20.40;99.90;;;;;;5017807;28;20053;-66
2022/07/16 11:49:40;;;;;;;11.43;2.63;;;20.30;99.90;;;;;;5034897;28;20115;-67
2022/07/16 11:52:22;;;;;;;6.05;2.58;;;20.60;99.90;;;;;;5034583;28;20090;-68
2022/07/16 11:54:49;;;;;;;8.55;1.95;;;20.40;99.90;;;;;;5034700;28;20037;-66
2022/07/16 11:57:14;;;;;;;9.90;1.70;;;20.60;99.90;;;;;;5034185;28;20375;-68
2022/07/16 11:59:47;;;;;;;6.70;1.80;;;20.60;99.90;;;;;;5034991;28;20107;-67
2022/07/16 12:02:16;;;;;;;7.88;1.85;;;20.70;99.90;;;;;;5027344;28;20128;-69
2022/07/16 12:04:44;;;;;;;10.68;2.10;;;20.30;99.90;;;;;;5035699;28;20041;-70
2022/07/16 12:07:16;;;;;;;7.15;2.03;;;20.50;99.90;;;;;;5036097;28;20468;-71
2022/07/16 12:09:44;;;;;;;4.80;1.58;;;20.90;99.90;;;;;;5025944;28;20364;-71
2022/07/16 12:12:20;;;;;;;7.50;1.98;;;20.80;99.90;;;;;;5029009;28;20033;-69
2022/07/16 12:14:58;;;;;;;5.38;1.77;;;20.80;99.90;;;;;;5019074;28;20045;-68
2022/07/16 12:17:37;;;;;;;6.78;2.05;;;21.40;99.90;;;;;;5038191;28;20049;-69
2022/07/16 12:20:21;;;;;;;5.38;1.42;;;21.50;99.90;;;;;;5038726;28;20161;-68
2022/07/16 12:22:57;;;;;;;4.68;1.48;;;21.60;99.90;;;;;;5038578;28;20045;-68
2022/07/16 12:25:32;;;;;;;7.45;1.75;;;21.90;99.40;;;;;;5037916;28;20095;-69
2022/07/16 12:27:59;;;;;;;4.60;1.50;;;21.80;99.90;;;;;;5018195;28;20050;-72
2022/07/16 12:30:33;;;;;;;7.97;1.63;;;22.10;98.90;;;;;;5018539;28;20038;-70
2022/07/16 12:33:00;;;;;;;6.10;2.10;;;22.10;97.30;;;;;;5018668;28;20125;-69
2022/07/16 12:35:45;;;;;;;5.03;1.55;;;22.50;98.30;;;;;;5025109;28;20092;-70
2022/07/16 12:41:24;;;;;;;5.85;2.00;;;22.30;95.90;;;;;;5028945;28;20057;-68
2022/07/16 12:43:57;;;;;;;7.03;1.98;;;21.80;95.90;;;;;;5034823;28;20368;-71
2022/07/16 12:46:25;;;;;;;5.28;1.63;;;22.60;97.00;;;;;;5037684;28;20510;-71
2022/07/16 12:49:17;;;;;;;3.92;1.77;;;23.30;96.70;;;;;;5038110;28;20037;-68
2022/07/16 12:51:51;;;;;;;5.60;2.00;;;23.40;96.20;;;;;;5026649;28;20093;-71
2022/07/16 12:54:18;;;;;;;4.38;1.80;;;24.00;96.00;;;;;;5038105;28;20124;-71
2022/07/16 12:59:30;;;;;;;5.75;1.70;;;24.00;95.00;;;;;;5037780;28;20061;-72
2022/07/16 13:01:57;;;;;;;5.55;1.50;;;24.10;94.60;;;;;;5037768;28;20049;-70